Time;durP1;ratioP1;P1;durP2;ratioP2;P2;SDS_P1;SDS_P2;PMS_P1;PMS_P2;Temp;Humidity;BMP_temperature;BMP_pressure;BME280_temperature;BME280_humidity;BME280_pressure;Samples;Min_cycle;Max_cycle;Signal;HPM_P1;HPM_P2
2023/08/15 00:01:14;;;;;;;8.98;7.30;;;;;;;44.80;13.29;100261.66;5035197;28;20049;-76
2023/08/15 00:03:45;;;;;;;7.90;6.90;;;;;;;44.67;12.57;100262.31;5021326;28;20057;-75
2023/08/15 00:06:14;;;;;;;9.35;7.43;;;;;;;44.58;12.35;100256.13;5028817;28;20140;-72
2023/08/15 00:08:42;;;;;;;12.38;8.02;;;;;;;44.52;12.80;100246.81;5025395;28;20565;-74
2023/08/15 00:11:11;;;;;;;8.60;7.38;;;;;;;44.47;13.05;100245.69;5029041;28;20096;-74
2023/08/15 00:13:41;;;;;;;8.52;7.30;;;;;;;44.45;13.50;100250.50;5027178;28;20099;-72
2023/08/15 00:16:19;;;;;;;7.30;6.57;;;;;;;44.34;12.97;100246.31;5001017;28;20041;-71
2023/08/15 00:18:48;;;;;;;7.70;6.85;;;;;;;44.23;12.49;100242.16;5004646;28;20416;-73
2023/08/15 00:21:18;;;;;;;6.72;6.10;;;;;;;44.18;13.33;100241.03;5000845;28;20049;-74
2023/08/15 00:23:46;;;;;;;9.02;6.90;;;;;;;44.17;13.66;100237.47;5001804;28;20060;-74
2023/08/15 00:26:16;;;;;;;6.55;5.95;;;;;;;44.17;13.89;100234.75;5011287;28;20058;-74
2023/08/15 00:28:46;;;;;;;7.35;6.65;;;;;;;44.16;14.12;100235.78;5003342;28;20068;-73
2023/08/15 00:31:14;;;;;;;9.18;7.78;;;;;;;44.07;12.82;100239.63;5012830;28;20104;-72
2023/08/15 00:33:45;;;;;;;10.02;8.63;;;;;;;44.02;13.26;100236.59;5005867;28;20695;-75
2023/08/15 00:36:14;;;;;;;6.82;6.13;;;;;;;43.97;13.22;100230.84;5009437;28;20057;-75
2023/08/15 00:38:43;;;;;;;6.80;6.10;;;;;;;43.91;13.16;100235.97;5006060;28;20057;-75
2023/08/15 00:41:22;;;;;;;6.53;5.65;;;;;;;43.89;13.01;100231.75;5011545;28;20828;-75
2023/08/15 00:43:52;;;;;;;7.07;5.72;;;;;;;43.89;13.45;100227.16;5000559;28;20062;-76
2023/08/15 00:46:21;;;;;;;6.35;5.75;;;;;;;43.87;14.79;100231.94;5016109;28;20057;-74
2023/08/15 00:48:50;;;;;;;7.18;4.40;;;;;;;43.79;14.31;100236.63;5007771;28;20491;-74
2023/08/15 00:51:22;;;;;;;10.82;4.40;;;;;;;43.70;13.77;100227.69;5025120;28;20060;-72
2023/08/15 00:53:51;;;;;;;5.90;3.72;;;;;;;43.65;14.36;100230.13;5018418;28;20177;-74
2023/08/15 00:56:20;;;;;;;11.15;5.45;;;;;;;43.58;13.54;100231.84;5026341;28;20057;-75
2023/08/15 00:58:49;;;;;;;4.28;3.50;;;;;;;43.55;14.29;100229.47;5023677;28;20096;-73
2023/08/15 01:01:21;;;;;;;4.50;3.45;;;;;;;43.43;14.46;100226.34;5033291;28;20495;-74
2023/08/15 01:03:51;;;;;;;4.20;2.78;;;;;;;43.27;14.37;100222.72;5025249;28;20061;-75
2023/08/15 01:06:32;;;;;;;5.07;3.03;;;;;;;43.18;14.69;100228.34;5024406;28;20124;-76
2023/08/15 01:09:01;;;;;;;5.78;2.58;;;;;;;43.08;14.80;100225.88;5019524;28;20541;-77
2023/08/15 01:11:41;;;;;;;5.82;2.60;;;;;;;42.99;15.04;100222.34;5032655;28;20049;-76
2023/08/15 01:14:16;;;;;;;3.42;2.05;;;;;;;42.91;15.16;100216.97;5024514;28;20049;-75
2023/08/15 01:16:52;;;;;;;6.13;2.53;;;;;;;42.82;14.75;100223.47;5032200;28;20061;-74
2023/08/15 01:19:37;;;;;;;8.38;2.53;;;;;;;42.73;14.85;100224.50;5040483;28;20112;-76
2023/08/15 01:22:18;;;;;;;4.03;2.60;;;;;;;42.62;14.57;100225.75;5047335;28;20050;-75
2023/08/15 01:24:49;;;;;;;5.53;2.33;;;;;;;42.54;14.62;100226.63;5046335;28;20052;-76
2023/08/15 01:27:18;;;;;;;3.70;2.45;;;;;;;42.46;14.78;100223.94;5042060;28;20052;-76
2023/08/15 01:29:52;;;;;;;3.72;2.03;;;;;;;42.34;15.16;100220.72;5038543;28;20111;-75
2023/08/15 01:32:28;;;;;;;4.80;2.30;;;;;;;42.29;15.47;100220.41;5032448;28;20555;-75
2023/08/15 01:35:06;;;;;;;3.38;2.17;;;;;;;42.21;15.63;100223.97;5029484;28;20059;-73
2023/08/15 01:37:37;;;;;;;4.55;2.17;;;;;;;42.12;15.10;100222.28;5025230;28;20132;-78
2023/08/15 01:40:14;;;;;;;4.88;2.50;;;;;;;42.02;15.52;100216.22;5028569;28;20053;-76
2023/08/15 01:42:46;;;;;;;3.42;1.85;;;;;;;41.94;15.31;100219.75;5017009;28;20038;-76
2023/08/15 01:45:16;;;;;;;4.25;2.00;;;;;;;41.83;15.71;100218.25;5021621;28;20049;-76
2023/08/15 01:47:45;;;;;;;3.33;2.00;;;;;;;41.78;15.82;100220.59;5018329;28;20053;-75
2023/08/15 01:50:13;;;;;;;4.13;1.92;;;;;;;41.69;16.70;100216.19;5022492;28;20064;-76
2023/08/15 01:52:43;;;;;;;3.08;2.30;;;;;;;41.57;16.51;100217.56;5023777;28;20053;-76
2023/08/15 01:55:14;;;;;;;4.82;2.10;;;;;;;41.47;16.16;100222.31;5024045;28;20050;-76
2023/08/15 01:57:43;;;;;;;4.13;2.28;;;;;;;41.39;16.75;100220.41;5024562;28;20057;-76
2023/08/15 02:00:12;;;;;;;2.72;2.42;;;;;;;41.28;16.98;100216.19;5019064;28;20054;-75
2023/08/15 02:02:40;;;;;;;2.88;2.22;;;;;;;41.17;17.00;100214.63;5022390;28;20416;-76
2023/08/15 02:05:13;;;;;;;3.15;2.20;;;;;;;41.10;17.00;100221.69;5028672;28;20507;-75
2023/08/15 02:07:41;;;;;;;4.35;2.13;;;;;;;41.01;17.17;100218.13;5016736;28;20072;-76
2023/08/15 02:10:11;;;;;;;2.65;2.03;;;;;;;40.92;17.68;100213.69;5026872;28;20052;-76
2023/08/15 02:12:41;;;;;;;5.00;3.70;;;;;;;40.79;18.06;100211.44;5024947;28;20146;-75
2023/08/15 02:15:17;;;;;;;3.90;2.53;;;;;;;40.69;17.68;100220.69;5023958;28;20046;-76
2023/08/15 02:17:46;;;;;;;3.55;2.75;;;;;;;40.57;17.43;100225.53;5016443;28;20483;-76
2023/08/15 02:20:14;;;;;;;4.10;2.70;;;;;;;40.47;17.34;100225.66;5023066;28;20061;-76
2023/08/15 02:22:43;;;;;;;4.78;2.30;;;;;;;40.36;17.73;100220.53;5017161;28;20502;-75
2023/08/15 02:25:12;;;;;;;6.13;2.40;;;;;;;40.22;18.09;100222.78;5022925;28;20058;-74
2023/08/15 02:27:42;;;;;;;3.80;2.60;;;;;;;40.11;17.79;100223.09;5024637;28;20045;-76
2023/08/15 02:30:11;;;;;;;3.70;2.33;;;;;;;40.01;18.41;100230.44;5018063;28;20041;-76
2023/08/15 02:32:40;;;;;;;3.95;2.50;;;;;;;39.90;18.34;100228.00;5028593;28;20115;-76
2023/08/15 02:35:13;;;;;;;5.63;2.97;;;;;;;39.78;19.45;100230.94;5018002;28;20053;-76
2023/08/15 02:37:42;;;;;;;3.22;2.45;;;;;;;39.67;19.20;100230.31;5022379;28;20049;-76
2023/08/15 02:40:11;;;;;;;3.35;2.55;;;;;;;39.55;19.14;100229.72;5025206;28;20080;-75
2023/08/15 02:42:41;;;;;;;3.05;2.08;;;;;;;39.44;19.91;100232.66;5025265;28;20115;-76
2023/08/15 02:45:10;;;;;;;9.70;2.25;;;;;;;39.32;20.12;100230.16;5024056;28;20053;-75
2023/08/15 02:47:41;;;;;;;5.47;2.55;;;;;;;39.21;20.63;100229.53;5021460;28;20050;-77
2023/08/15 02:50:10;;;;;;;3.25;2.40;;;;;;;39.08;20.62;100229.88;5022656;28;20053;-76
2023/08/15 02:52:39;;;;;;;5.57;2.60;;;;;;;38.96;20.64;100232.81;5022100;28;20091;-76
2023/08/15 02:55:08;;;;;;;3.92;2.45;;;;;;;38.85;20.81;100238.41;5026874;28;20491;-76
2023/08/15 02:57:39;;;;;;;3.70;2.50;;;;;;;38.75;20.78;100243.00;5021942;28;20089;-75
2023/08/15 03:00:11;;;;;;;3.00;2.60;;;;;;;38.65;21.18;100244.91;5021333;28;20057;-75
2023/08/15 03:02:41;;;;;;;5.15;2.78;;;;;;;38.53;21.72;100245.09;5019806;28;20046;-75
2023/08/15 03:05:10;;;;;;;4.10;2.63;;;;;;;38.43;21.61;100260.47;5019402;28;20124;-76
2023/08/15 03:07:38;;;;;;;4.82;2.20;;;;;;;38.32;21.73;100257.94;5022336;28;20056;-76
2023/08/15 03:10:10;;;;;;;4.95;2.53;;;;;;;38.19;21.77;100260.09;5025683;28;20045;-76
2023/08/15 03:12:38;;;;;;;5.22;2.80;;;;;;;38.08;22.30;100271.94;5020352;28;20078;-75
2023/08/15 03:15:09;;;;;;;4.13;2.40;;;;;;;37.96;22.18;100268.50;5020797;28;20049;-76
2023/08/15 03:17:38;;;;;;;8.50;2.47;;;;;;;37.85;22.26;100268.66;5018212;28;20057;-75
2023/08/15 03:20:12;;;;;;;6.28;3.10;;;;;;;37.73;22.23;100278.75;5015290;28;20112;-76
2023/08/15 03:22:44;;;;;;;6.15;2.80;;;;;;;37.59;22.50;100282.72;5025123;28;20056;-76
2023/08/15 03:25:13;;;;;;;3.55;2.67;;;;;;;37.48;22.81;100280.13;5026013;28;20053;-76
2023/08/15 03:27:41;;;;;;;5.88;2.80;;;;;;;37.38;22.95;100281.94;5016340;28;20053;-75
2023/08/15 03:30:14;;;;;;;5.85;3.00;;;;;;;37.26;23.02;100286.63;5023159;28;20049;-76
2023/08/15 03:32:42;;;;;;;4.38;2.70;;;;;;;37.15;22.94;100287.59;5026842;28;20111;-76
2023/08/15 03:35:11;;;;;;;4.13;2.80;;;;;;;37.05;23.41;100294.78;5018699;28;20564;-75
2023/08/15 03:37:39;;;;;;;6.05;3.00;;;;;;;36.93;23.43;100298.53;5026935;28;20053;-75
2023/08/15 03:40:19;;;;;;;5.22;2.50;;;;;;;36.79;24.96;100294.38;5014705;28;20099;-75
2023/08/15 03:42:47;;;;;;;8.43;2.70;;;;;;;36.64;24.11;100305.53;5018371;28;20042;-75
2023/08/15 03:45:19;;;;;;;4.13;2.72;;;;;;;36.52;24.26;100303.88;5019508;28;20053;-74
2023/08/15 03:47:47;;;;;;;3.97;2.42;;;;;;;36.41;24.74;100314.72;5025391;28;20045;-76
2023/08/15 03:50:18;;;;;;;6.28;2.85;;;;;;;36.32;25.10;100310.13;5016962;28;20054;-76
2023/08/15 03:52:46;;;;;;;3.35;2.80;;;;;;;36.21;24.96;100319.97;5023916;28;20541;-76
2023/08/15 03:55:15;;;;;;;4.10;2.90;;;;;;;36.12;25.52;100322.59;5018744;28;20045;-77
2023/08/15 03:57:44;;;;;;;3.20;2.60;;;;;;;36.01;25.26;100321.66;5019067;28;20060;-76
2023/08/15 04:00:20;;;;;;;5.50;2.42;;;;;;;35.90;26.42;100320.81;5024315;28;20122;-76
2023/08/15 04:02:50;;;;;;;3.78;2.70;;;;;;;35.73;26.13;100320.41;5013670;28;20138;-77
2023/08/15 04:05:19;;;;;;;4.57;2.47;;;;;;;35.62;26.08;100329.41;5021140;28;20054;-74
2023/08/15 04:07:47;;;;;;;3.53;2.65;;;;;;;35.53;25.97;100322.06;5022789;28;20601;-76
2023/08/15 04:10:16;;;;;;;3.22;2.53;;;;;;;35.42;26.09;100331.00;5023532;28;20057;-79
2023/08/15 04:12:46;;;;;;;4.60;2.92;;;;;;;35.34;26.86;100332.59;5033003;28;20073;-76
2023/08/15 04:15:15;;;;;;;8.30;3.45;;;;;;;35.22;26.36;100332.59;5018716;28;20065;-75
2023/08/15 04:17:43;;;;;;;5.43;2.72;;;;;;;35.13;26.62;100341.41;5017759;28;20454;-79
2023/08/15 04:20:18;;;;;;;3.88;2.53;;;;;;;35.04;26.10;100347.50;5018361;28;20052;-77
2023/08/15 04:22:47;;;;;;;7.05;2.60;;;;;;;34.94;26.31;100351.91;5024347;28;20046;-78
2023/08/15 04:25:15;;;;;;;6.40;2.67;;;;;;;34.85;26.99;100366.09;5032897;28;20045;-76
2023/08/15 04:27:44;;;;;;;7.70;2.58;;;;;;;34.75;27.30;100365.91;5036864;28;20049;-78
2023/08/15 04:30:13;;;;;;;2.70;2.30;;;;;;;34.63;27.49;100367.75;5036285;28;20051;-76
2023/08/15 04:32:41;;;;;;;3.30;2.40;;;;;;;34.56;26.54;100369.16;5039161;28;20049;-77
2023/08/15 04:35:10;;;;;;;3.47;2.83;;;;;;;34.51;26.03;100365.97;5038280;28;20042;-79
2023/08/15 04:37:41;;;;;;;3.90;2.67;;;;;;;34.44;25.48;100368.28;5040736;28;20033;-77
2023/08/15 04:40:14;;;;;;;4.47;2.63;;;;;;;34.36;28.09;100368.88;5039499;28;20049;-76
2023/08/15 04:42:43;;;;;;;3.75;2.50;;;;;;;34.28;27.12;100370.44;5017435;28;20049;-78
2023/08/15 04:45:15;;;;;;;3.35;2.40;;;;;;;34.21;27.16;100375.41;5028178;28;20139;-76
2023/08/15 04:47:43;;;;;;;5.22;2.80;;;;;;;34.13;26.65;100367.06;5029109;28;20046;-77
2023/08/15 04:50:12;;;;;;;3.97;2.38;;;;;;;34.06;27.57;100377.38;5035931;28;20463;-76
2023/08/15 04:52:42;;;;;;;4.88;2.20;;;;;;;33.96;27.77;100371.84;5017796;28;20455;-76
2023/08/15 04:55:13;;;;;;;3.30;2.55;;;;;;;33.90;27.58;100377.69;5025973;28;20423;-75
2023/08/15 04:57:42;;;;;;;4.13;2.30;;;;;;;33.83;27.60;100371.03;5017418;28;20045;-74
2023/08/15 05:00:12;;;;;;;4.38;2.65;;;;;;;33.79;27.80;100373.13;5017211;28;20045;-78
2023/08/15 05:02:41;;;;;;;3.22;2.58;;;;;;;33.74;27.12;100377.09;5020672;28;20080;-75
2023/08/15 05:05:10;;;;;;;3.28;2.50;;;;;;;33.71;27.73;100377.34;5031547;28;20644;-73
2023/08/15 05:07:39;;;;;;;4.53;2.90;;;;;;;33.67;27.94;100379.38;5007569;28;20081;-73
2023/08/15 05:10:10;;;;;;;4.13;2.58;;;;;;;33.63;27.66;100385.06;5005849;28;20049;-76
2023/08/15 05:12:39;;;;;;;3.05;2.47;;;;;;;33.56;27.52;100384.66;5008881;28;20049;-75
2023/08/15 05:15:09;;;;;;;4.88;3.10;;;;;;;33.50;27.64;100383.25;5008592;28;20137;-74
2023/08/15 05:17:38;;;;;;;6.30;3.03;;;;;;;33.46;28.09;100389.81;5007724;28;20054;-76
2023/08/15 05:20:07;;;;;;;6.38;2.95;;;;;;;33.38;27.96;100387.69;5011032;28;20058;-75
2023/08/15 05:22:36;;;;;;;3.17;2.70;;;;;;;33.32;27.63;100387.28;5003924;28;20041;-76
2023/08/15 05:25:05;;;;;;;9.25;2.70;;;;;;;33.28;27.53;100385.78;5009504;28;20058;-76
2023/08/15 05:27:37;;;;;;;2.72;2.50;;;;;;;33.23;28.12;100379.88;5005639;28;20132;-76
2023/08/15 05:30:06;;;;;;;5.50;2.58;;;;;;;33.15;27.68;100375.94;5005260;28;20046;-74
2023/08/15 05:32:34;;;;;;;4.22;2.50;;;;;;;33.09;28.55;100379.03;5006647;28;20068;-74
2023/08/15 05:35:03;;;;;;;4.60;2.70;;;;;;;33.04;27.38;100383.84;5008013;28;20591;-74
2023/08/15 05:37:31;;;;;;;3.72;2.63;;;;;;;33.00;29.02;100382.34;5007212;28;20050;-74
2023/08/15 05:40:00;;;;;;;4.40;2.30;;;;;;;32.95;28.82;100389.84;5006211;28;20557;-75
2023/08/15 05:42:31;;;;;;;4.55;2.25;;;;;;;32.88;28.50;100384.06;5007997;28;20064;-74
2023/08/15 05:45:01;;;;;;;;;;;;;;;32.83;27.78;100388.03;5008083;28;20046;-75
2023/08/15 05:47:30;;;;;;;2.45;2.25;;;;;;;32.80;28.02;100388.25;5009938;28;19921;-76
2023/08/15 05:49:58;;;;;;;5.80;2.80;;;;;;;32.75;28.13;100383.19;5007448;28;20046;-76
2023/08/15 05:52:30;;;;;;;3.22;2.60;;;;;;;32.70;27.68;100394.22;5002129;28;20050;-76
2023/08/15 05:54:59;;;;;;;5.68;2.78;;;;;;;32.65;28.41;100392.84;5009592;28;20053;-78
2023/08/15 05:57:27;;;;;;;4.93;2.80;;;;;;;32.59;29.36;100394.13;5005241;28;20046;-74
2023/08/15 05:59:56;;;;;;;3.80;2.40;;;;;;;32.51;30.23;100394.66;5006264;28;20066;-76
2023/08/15 06:02:26;;;;;;;3.53;2.58;;;;;;;32.45;28.25;100392.34;5005517;28;20058;-75
2023/08/15 06:04:58;;;;;;;8.10;3.03;;;;;;;32.41;29.32;100389.97;5007966;28;20104;-75
2023/08/15 06:07:28;;;;;;;3.97;2.58;;;;;;;32.35;28.79;100394.78;5028008;28;20053;-73
2023/08/15 06:09:57;;;;;;;7.72;2.90;;;;;;;32.32;29.14;100388.78;5030682;28;20095;-77
2023/08/15 06:12:25;;;;;;;3.92;2.55;;;;;;;32.30;28.96;100401.44;5029744;28;20599;-76
2023/08/15 06:15:00;;;;;;;3.78;2.70;;;;;;;32.27;29.27;100397.13;5024206;28;20049;-77
2023/08/15 06:17:30;;;;;;;4.03;2.47;;;;;;;32.22;29.04;100396.56;5032997;28;20147;-75
2023/08/15 06:19:58;;;;;;;6.35;2.90;;;;;;;32.19;29.29;100395.94;5025464;28;20058;-77
2023/08/15 06:22:27;;;;;;;2.97;2.65;;;;;;;32.17;28.82;100404.06;5029209;28;20403;-75
2023/08/15 06:25:05;;;;;;;5.63;3.15;;;;;;;32.13;29.04;100400.72;5030483;28;20045;-76
2023/08/15 06:27:34;;;;;;;3.13;2.83;;;;;;;32.09;28.74;100407.25;5026469;28;20131;-75
2023/08/15 06:30:02;;;;;;;5.20;2.90;;;;;;;32.05;29.72;100405.72;5017439;28;20057;-74
2023/08/15 06:32:33;;;;;;;3.63;2.63;;;;;;;32.03;29.55;100406.78;5026067;28;20060;-76
2023/08/15 06:35:06;;;;;;;4.88;3.42;;;;;;;32.02;28.76;100405.06;5027425;28;20787;-74
2023/08/15 06:37:34;;;;;;;4.45;2.97;;;;;;;32.04;29.80;100408.50;5025320;28;20057;-75
2023/08/15 06:40:03;;;;;;;4.85;3.20;;;;;;;32.03;29.26;100412.16;5027330;28;20068;-76
2023/08/15 06:42:32;;;;;;;4.53;3.25;;;;;;;32.00;29.72;100409.66;5024723;28;20142;-75
2023/08/15 06:45:07;;;;;;;5.05;3.03;;;;;;;31.98;29.45;100416.91;5028505;28;20537;-76
2023/08/15 06:47:37;;;;;;;5.43;3.30;;;;;;;31.91;29.95;100414.63;5027174;28;20041;-76
2023/08/15 06:50:08;;;;;;;4.13;3.25;;;;;;;31.85;30.02;100417.69;5024358;28;20511;-75
2023/08/15 06:52:37;;;;;;;5.03;3.17;;;;;;;31.81;30.12;100418.00;5028984;28;20410;-75
2023/08/15 06:55:06;;;;;;;4.55;3.10;;;;;;;31.77;29.96;100417.31;5023458;28;20140;-74
2023/08/15 06:57:35;;;;;;;3.90;3.30;;;;;;;31.70;31.65;100422.25;5027942;28;20113;-76
2023/08/15 07:00:06;;;;;;;5.07;3.47;;;;;;;31.62;30.60;100421.00;5025588;28;20057;-77
2023/08/15 07:02:36;;;;;;;5.13;3.83;;;;;;;31.55;30.39;100427.72;5024020;28;20050;-76
2023/08/15 07:05:11;;;;;;;3.85;2.85;;;;;;;31.50;30.96;100433.34;5026570;28;20046;-76
2023/08/15 07:07:40;;;;;;;5.15;3.30;;;;;;;31.48;31.18;100432.59;5022036;28;20574;-76
2023/08/15 07:10:10;;;;;;;4.40;3.40;;;;;;;31.40;30.76;100427.66;5023003;28;20053;-77
2023/08/15 07:12:38;;;;;;;5.90;3.40;;;;;;;31.34;31.14;100436.09;5025075;28;20057;-75
2023/08/15 07:15:11;;;;;;;4.13;3.13;;;;;;;31.25;31.77;100436.66;5023891;28;20046;-74
2023/08/15 07:17:41;;;;;;;4.35;3.35;;;;;;;31.18;32.77;100435.31;5023135;28;20560;-74
2023/08/15 07:20:14;;;;;;;4.80;3.10;;;;;;;31.13;34.21;100432.06;5023206;28;20085;-74
2023/08/15 07:22:43;;;;;;;3.90;3.42;;;;;;;31.07;33.31;100439.50;5027601;28;20080;-76
2023/08/15 07:25:15;;;;;;;5.72;3.25;;;;;;;31.02;33.02;100438.94;5031827;28;20080;-77
2023/08/15 07:27:43;;;;;;;;;;;;;;;30.97;32.49;100443.72;5033560;28;20049;-75
2023/08/15 07:30:12;;;;;;;5.13;3.53;;;;;;;30.93;32.81;100444.84;5038192;28;19940;-76
2023/08/15 07:32:44;;;;;;;5.45;3.42;;;;;;;30.87;32.40;100448.72;5029690;28;20049;-76
2023/08/15 07:35:21;;;;;;;5.75;3.00;;;;;;;30.81;32.20;100450.88;5044059;28;20057;-77
2023/08/15 07:37:49;;;;;;;5.32;3.38;;;;;;;30.73;32.53;100456.69;5049526;28;20053;-76
2023/08/15 07:40:21;;;;;;;6.32;3.67;;;;;;;30.65;32.99;100459.81;5048051;28;20033;-77
2023/08/15 07:42:50;;;;;;;6.75;3.47;;;;;;;30.58;33.70;100453.13;5045409;28;20049;-76
2023/08/15 07:45:18;;;;;;;3.97;3.40;;;;;;;30.55;33.51;100460.44;5043152;28;20057;-76
2023/08/15 07:47:51;;;;;;;4.97;3.75;;;;;;;30.48;33.22;100457.25;5036188;28;20049;-76
2023/08/15 07:50:22;;;;;;;6.43;3.50;;;;;;;30.38;33.87;100456.94;5036296;28;20045;-77
2023/08/15 07:52:51;;;;;;;4.25;3.45;;;;;;;30.27;34.02;100459.38;5023243;28;20053;-75
2023/08/15 07:55:20;;;;;;;5.85;3.50;;;;;;;30.17;33.29;100464.34;5023681;28;20041;-75
2023/08/15 07:57:48;;;;;;;6.07;4.25;;;;;;;30.08;33.90;100464.88;5025310;28;20633;-75
2023/08/15 08:00:18;;;;;;;10.48;3.58;;;;;;;30.00;33.98;100469.75;5027354;28;20082;-75
2023/08/15 08:02:48;;;;;;;5.38;3.88;;;;;;;29.92;34.57;100462.19;5022943;28;20050;-74
2023/08/15 08:05:21;;;;;;;5.68;3.45;;;;;;;29.87;34.77;100477.63;5026309;28;20127;-75
2023/08/15 08:07:49;;;;;;;5.07;3.88;;;;;;;29.82;35.21;100480.50;5023693;28;20172;-76
2023/08/15 08:10:18;;;;;;;6.93;3.88;;;;;;;29.80;34.90;100474.41;5028695;28;20045;-76
2023/08/15 08:12:47;;;;;;;5.68;3.35;;;;;;;29.77;34.87;100482.56;5022635;28;20064;-75
2023/08/15 08:15:24;;;;;;;4.93;2.92;;;;;;;29.75;34.58;100483.59;5023416;28;20565;-75
2023/08/15 08:18:09;;;;;;;5.18;3.30;;;;;;;29.72;34.96;100484.63;5027342;28;20122;-76
2023/08/15 08:20:47;;;;;;;5.13;3.83;;;;;;;29.65;35.08;100486.75;5002974;28;20568;-75
2023/08/15 08:23:15;;;;;;;5.00;3.50;;;;;;;29.61;35.12;100482.50;5004846;28;20062;-75
2023/08/15 08:25:45;;;;;;;4.68;3.80;;;;;;;29.55;35.42;100487.31;5005579;28;20050;-78
2023/08/15 08:28:16;;;;;;;5.05;3.55;;;;;;;29.48;35.68;100485.91;5007282;28;20072;-75
2023/08/15 08:30:48;;;;;;;7.22;3.92;;;;;;;29.37;36.54;100491.84;5002668;28;20416;-76
2023/08/15 08:33:19;;;;;;;5.05;3.60;;;;;;;29.30;36.55;100501.97;5002478;28;20047;-76
2023/08/15 08:35:47;;;;;;;4.90;3.97;;;;;;;29.22;36.21;100499.69;5005888;28;20042;-76
2023/08/15 08:38:17;;;;;;;7.63;4.22;;;;;;;29.14;36.62;100493.06;5004735;28;20198;-76
2023/08/15 08:40:48;;;;;;;4.95;3.65;;;;;;;29.06;37.10;100500.53;5003934;28;20045;-76
2023/08/15 08:43:17;;;;;;;4.60;3.40;;;;;;;29.00;37.20;100499.94;5004073;28;20097;-77
2023/08/15 08:45:50;;;;;;;5.20;3.63;;;;;;;28.97;37.40;100501.88;5003810;28;20050;-76
2023/08/15 08:48:28;;;;;;;6.75;4.07;;;;;;;28.93;37.24;100497.63;5004289;28;20056;-77
2023/08/15 08:50:57;;;;;;;4.45;3.90;;;;;;;28.87;37.69;100501.50;5004214;28;20080;-74
2023/08/15 08:53:26;;;;;;;6.95;3.53;;;;;;;28.79;39.32;100501.00;5005541;28;20178;-76
2023/08/15 08:55:55;;;;;;;4.40;3.90;;;;;;;28.71;39.65;100498.72;5006633;28;20144;-78
2023/08/15 08:58:31;;;;;;;5.50;3.67;;;;;;;28.63;38.59;100502.72;5004088;28;20042;-76
2023/08/15 09:01:03;;;;;;;6.90;3.85;;;;;;;28.56;38.45;100503.00;5002209;28;20123;-76
2023/08/15 09:03:34;;;;;;;5.25;3.85;;;;;;;28.50;38.35;100498.00;5002412;28;20118;-76
2023/08/15 09:06:02;;;;;;;5.03;3.85;;;;;;;28.44;38.77;100498.25;5007556;28;20061;-77
2023/08/15 09:08:34;;;;;;;5.50;3.83;;;;;;;28.41;38.46;100509.06;4998175;28;20046;-77
2023/08/15 09:11:02;;;;;;;;;;;;;;;28.38;38.29;100498.56;5004866;28;20249;-76
2023/08/15 09:13:30;;;;;;;5.45;3.65;;;;;;;28.35;38.47;100499.56;5009612;28;19929;-76
2023/08/15 09:15:59;;;;;;;6.07;4.10;;;;;;;28.32;37.88;100498.88;5004181;28;20046;-76
2023/08/15 09:18:29;;;;;;;5.30;4.22;;;;;;;28.29;38.29;100499.00;5004458;28;20580;-77
2023/08/15 09:20:59;;;;;;;6.50;4.20;;;;;;;28.25;39.26;100498.31;5004972;28;20065;-75
2023/08/15 09:23:28;;;;;;;5.03;3.72;;;;;;;28.16;40.01;100493.44;5001651;28;20050;-76
2023/08/15 09:25:56;;;;;;;5.07;4.10;;;;;;;28.07;39.50;100499.19;5003826;28;20042;-76
2023/08/15 09:28:25;;;;;;;6.85;3.88;;;;;;;28.00;39.17;100498.63;5015612;28;20054;-76
2023/08/15 09:31:04;;;;;;;5.03;4.28;;;;;;;27.94;38.77;100501.56;5001597;28;20602;-77
2023/08/15 09:33:32;;;;;;;4.45;3.60;;;;;;;27.87;39.33;100500.13;5009180;28;20081;-77
2023/08/15 09:36:04;;;;;;;5.00;4.03;;;;;;;27.78;39.96;100496.06;5007953;28;20661;-76
2023/08/15 09:38:38;;;;;;;5.22;4.03;;;;;;;27.72;40.01;100494.56;5007984;28;20124;-75
2023/08/15 09:41:08;;;;;;;5.63;3.50;;;;;;;27.64;40.25;100506.47;5011483;28;20069;-75
2023/08/15 09:43:36;;;;;;;5.45;3.42;;;;;;;27.55;40.59;100508.59;5007697;28;20046;-74
2023/08/15 09:46:05;;;;;;;5.93;3.65;;;;;;;27.47;40.94;100515.19;5009971;28;20037;-75
2023/08/15 09:48:34;;;;;;;7.90;4.05;;;;;;;27.43;40.99;100513.59;5003675;28;20042;-76
2023/08/15 09:51:11;;;;;;;5.40;3.78;;;;;;;27.41;41.19;100515.47;4995417;28;20053;-74
2023/08/15 09:53:40;;;;;;;5.80;3.30;;;;;;;27.39;41.30;100512.00;5013441;28;20487;-75
2023/08/15 09:56:09;;;;;;;5.25;3.92;;;;;;;27.38;42.34;100512.97;5005421;28;20054;-75
2023/08/15 09:58:44;;;;;;;7.25;3.35;;;;;;;27.31;42.82;100521.19;5007493;28;20213;-74
2023/08/15 10:01:14;;;;;;;6.22;3.75;;;;;;;27.22;43.60;100521.59;5005414;28;20420;-76
2023/08/15 10:03:44;;;;;;;5.32;3.90;;;;;;;27.16;43.07;100519.16;5008503;28;20078;-77
2023/08/15 10:06:17;;;;;;;5.47;4.10;;;;;;;27.09;43.04;100525.66;5005691;28;20148;-75
2023/08/15 10:08:49;;;;;;;5.15;3.72;;;;;;;27.03;43.16;100531.22;5006208;28;20057;-76
2023/08/15 10:11:18;;;;;;;;;;;;;;;26.92;43.41;100543.19;5010193;28;20456;-76
2023/08/15 10:13:51;;;;;;;4.60;3.65;;;;;;;26.88;43.21;100549.53;5007359;28;19950;-75
2023/08/15 10:16:19;;;;;;;5.63;3.88;;;;;;;26.75;43.62;100537.69;4998020;28;20050;-75
2023/08/15 10:18:59;;;;;;;6.22;4.28;;;;;;;26.73;44.52;100547.50;5008559;28;20045;-76
2023/08/15 10:21:48;;;;;;;5.20;4.15;;;;;;;26.63;43.99;100541.72;5002711;28;20054;-75
2023/08/15 10:24:17;;;;;;;5.25;3.88;;;;;;;26.56;44.39;100542.91;5006928;28;20054;-74
2023/08/15 10:26:46;;;;;;;5.35;3.70;;;;;;;26.51;44.72;100544.84;5002350;28;20389;-75
2023/08/15 10:29:24;;;;;;;5.15;3.47;;;;;;;26.46;44.96;100546.81;5006532;28;20425;-76
2023/08/15 10:32:00;;;;;;;4.53;3.83;;;;;;;26.39;45.33;100556.81;5006982;28;20064;-77
2023/08/15 10:34:37;;;;;;;6.40;4.15;;;;;;;26.35;45.45;100560.50;5005478;28;20468;-75
2023/08/15 10:37:33;;;;;;;6.82;3.95;;;;;;;26.28;44.95;100556.38;4994216;28;20042;-76
2023/08/15 10:40:10;;;;;;;8.63;4.07;;;;;;;26.25;45.30;100569.72;5009308;28;20047;-76
2023/08/15 10:43:07;;;;;;;6.43;4.85;;;;;;;26.22;45.97;100567.19;5008924;28;20070;-76
2023/08/15 10:45:41;;;;;;;6.00;4.38;;;;;;;26.19;46.12;100577.94;5010430;28;20263;-75
2023/08/15 10:48:11;;;;;;;7.13;3.92;;;;;;;26.18;45.71;100584.16;5010577;28;20053;-75
2023/08/15 10:50:46;;;;;;;5.47;3.97;;;;;;;26.18;46.88;100584.16;5006328;28;20516;-75
2023/08/15 10:53:17;;;;;;;7.18;3.75;;;;;;;26.13;47.79;100587.84;5002855;28;20084;-74
2023/08/15 10:55:46;;;;;;;4.50;3.40;;;;;;;26.06;48.11;100581.03;4999706;28;20672;-76
2023/08/15 10:58:14;;;;;;;6.13;3.80;;;;;;;26.01;47.50;100582.13;5006116;28;20042;-75
2023/08/15 11:00:46;;;;;;;8.73;4.75;;;;;;;25.97;46.96;100585.81;5005629;28;20081;-76
2023/08/15 11:03:15;;;;;;;7.13;4.05;;;;;;;25.91;47.41;100592.22;5004335;28;20058;-76
2023/08/15 11:05:44;;;;;;;7.45;4.10;;;;;;;25.80;47.62;100595.22;5007554;28;20439;-77
2023/08/15 11:08:23;;;;;;;10.10;4.28;;;;;;;25.69;47.82;100598.25;5004738;28;20053;-75
2023/08/15 11:10:52;;;;;;;5.20;3.85;;;;;;;25.65;47.96;100598.41;5007917;28;20053;-76
2023/08/15 11:13:23;;;;;;;5.55;4.00;;;;;;;25.60;48.34;100592.44;5003575;28;20120;-77
2023/08/15 11:15:52;;;;;;;10.32;4.15;;;;;;;25.54;48.63;100590.88;5011568;28;20037;-77
2023/08/15 11:18:23;;;;;;;7.95;4.20;;;;;;;25.45;49.01;100591.19;5003564;28;20054;-76
2023/08/15 11:20:53;;;;;;;7.88;4.32;;;;;;;25.47;49.29;100602.56;5007193;28;20050;-76
2023/08/15 11:23:27;;;;;;;7.68;4.28;;;;;;;25.40;49.07;100601.91;5007034;28;20484;-75
2023/08/15 11:25:55;;;;;;;6.63;4.43;;;;;;;25.35;50.14;100605.66;5012579;28;20058;-74
2023/08/15 11:28:35;;;;;;;6.30;4.03;;;;;;;25.28;49.94;100613.81;4998891;28;20679;-76
2023/08/15 11:31:06;;;;;;;8.45;4.20;;;;;;;25.23;50.58;100626.34;4999675;28;20061;-73
2023/08/15 11:33:35;;;;;;;7.65;3.92;;;;;;;25.19;51.66;100624.72;5005340;28;20112;-76
2023/08/15 11:36:08;;;;;;;6.88;4.22;;;;;;;25.10;51.08;100614.38;4992727;28;20054;-77
2023/08/15 11:38:41;;;;;;;5.75;3.75;;;;;;;25.07;52.29;100622.44;5004961;28;20058;-76
2023/08/15 11:41:10;;;;;;;5.50;3.70;;;;;;;25.02;53.24;100617.28;5006598;28;20072;-75
2023/08/15 11:43:42;;;;;;;7.32;4.15;;;;;;;24.97;53.36;100621.88;5003321;28;20045;-75